sensor_id;sensor_type;location;lat;lon;timestamp;P1;durP1;ratioP1;P2;durP2;ratioP2
16320;SDS011;8269;50.990;4.494;2023-02-01T00:01:41;26.57;;;10.83;;
16320;SDS011;8269;50.990;4.494;2023-02-01T00:04:07;27.43;;;10.73;;
16320;SDS011;8269;50.990;4.494;2023-02-01T00:06:33;22.40;;;11.10;;
16320;SDS011;8269;50.990;4.494;2023-02-01T00:08:59;26.10;;;10.47;;
16320;SDS011;8269;50.990;4.494;2023-02-01T00:11:25;26.13;;;9.43;;
16320;SDS011;8269;50.990;4.494;2023-02-01T00:13:52;23.80;;;8.97;;
16320;SDS011;8269;50.990;4.494;2023-02-01T00:16:19;29.50;;;9.20;;
16320;SDS011;8269;50.990;4.494;2023-02-01T00:18:45;23.17;;;8.10;;
16320;SDS011;8269;50.990;4.494;2023-02-01T00:21:12;19.80;;;7.67;;
16320;SDS011;8269;50.990;4.494;2023-02-01T00:23:38;26.60;;;8.27;;
16320;SDS011;8269;50.990;4.494;2023-02-01T00:26:05;23.60;;;7.20;;
16320;SDS011;8269;50.990;4.494;2023-02-01T00:28:31;21.33;;;7.10;;
16320;SDS011;8269;50.990;4.494;2023-02-01T00:30:58;17.80;;;6.93;;
16320;SDS011;8269;50.990;4.494;2023-02-01T00:33:24;20.40;;;7.00;;
16320;SDS011;8269;50.990;4.494;2023-02-01T00:35:50;20.40;;;8.10;;
16320;SDS011;8269;50.990;4.494;2023-02-01T00:38:16;25.83;;;7.83;;
16320;SDS011;8269;50.990;4.494;2023-02-01T00:40:42;30.30;;;9.50;;
16320;SDS011;8269;50.990;4.494;2023-02-01T00:43:08;36.63;;;11.93;;
16320;SDS011;8269;50.990;4.494;2023-02-01T00:45:35;20.23;;;7.63;;
16320;SDS011;8269;50.990;4.494;2023-02-01T00:48:01;21.50;;;7.20;;
16320;SDS011;8269;50.990;4.494;2023-02-01T00:50:28;23.57;;;7.23;;
16320;SDS011;8269;50.990;4.494;2023-02-01T00:52:54;18.40;;;7.17;;
16320;SDS011;8269;50.990;4.494;2023-02-01T00:55:21;21.73;;;6.53;;
16320;SDS011;8269;50.990;4.494;2023-02-01T00:57:48;18.70;;;5.13;;
16320;SDS011;8269;50.990;4.494;2023-02-01T01:00:14;16.37;;;5.00;;
16320;SDS011;8269;50.990;4.494;2023-02-01T01:02:42;18.00;;;6.10;;
16320;SDS011;8269;50.990;4.494;2023-02-01T01:05:08;17.77;;;5.80;;
16320;SDS011;8269;50.990;4.494;2023-02-01T01:07:34;23.27;;;5.53;;
16320;SDS011;8269;50.990;4.494;2023-02-01T01:10:01;18.80;;;6.20;;
16320;SDS011;8269;50.990;4.494;2023-02-01T01:12:28;22.10;;;5.57;;
16320;SDS011;8269;50.990;4.494;2023-02-01T01:14:54;20.30;;;5.60;;
16320;SDS011;8269;50.990;4.494;2023-02-01T01:17:20;29.87;;;6.37;;
16320;SDS011;8269;50.990;4.494;2023-02-01T01:19:46;16.90;;;5.43;;
16320;SDS011;8269;50.990;4.494;2023-02-01T01:22:12;19.27;;;5.33;;
16320;SDS011;8269;50.990;4.494;2023-02-01T01:24:38;17.57;;;5.27;;
16320;SDS011;8269;50.990;4.494;2023-02-01T01:27:04;17.83;;;4.70;;
16320;SDS011;8269;50.990;4.494;2023-02-01T01:29:30;19.70;;;5.57;;
16320;SDS011;8269;50.990;4.494;2023-02-01T01:31:56;21.87;;;4.93;;
16320;SDS011;8269;50.990;4.494;2023-02-01T01:34:22;20.47;;;5.97;;
16320;SDS011;8269;50.990;4.494;2023-02-01T01:36:48;19.63;;;4.93;;
16320;SDS011;8269;50.990;4.494;2023-02-01T01:39:14;17.03;;;5.07;;
16320;SDS011;8269;50.990;4.494;2023-02-01T01:41:40;21.80;;;5.40;;
16320;SDS011;8269;50.990;4.494;2023-02-01T01:44:06;20.53;;;5.40;;
16320;SDS011;8269;50.990;4.494;2023-02-01T01:46:52;16.70;;;4.67;;
16320;SDS011;8269;50.990;4.494;2023-02-01T01:49:19;20.00;;;5.23;;
16320;SDS011;8269;50.990;4.494;2023-02-01T01:51:51;17.77;;;5.07;;
16320;SDS011;8269;50.990;4.494;2023-02-01T01:54:29;19.03;;;4.40;;
16320;SDS011;8269;50.990;4.494;2023-02-01T01:56:57;16.30;;;4.60;;
16320;SDS011;8269;50.990;4.494;2023-02-01T01:59:24;21.40;;;4.97;;
16320;SDS011;8269;50.990;4.494;2023-02-01T02:01:51;23.17;;;5.23;;
16320;SDS011;8269;50.990;4.494;2023-02-01T02:04:17;15.37;;;4.53;;
16320;SDS011;8269;50.990;4.494;2023-02-01T02:07:04;17.37;;;4.43;;
16320;SDS011;8269;50.990;4.494;2023-02-01T02:09:31;23.03;;;5.67;;
16320;SDS011;8269;50.990;4.494;2023-02-01T02:11:57;17.27;;;4.83;;
16320;SDS011;8269;50.990;4.494;2023-02-01T02:14:23;22.73;;;4.93;;
16320;SDS011;8269;50.990;4.494;2023-02-01T02:22:48;17.53;;;4.23;;
16320;SDS011;8269;50.990;4.494;2023-02-01T02:35:59;16.43;;;5.30;;
16320;SDS011;8269;50.990;4.494;2023-02-01T02:38:30;19.73;;;4.17;;
16320;SDS011;8269;50.990;4.494;2023-02-01T02:41:16;18.37;;;4.47;;
16320;SDS011;8269;50.990;4.494;2023-02-01T02:44:06;13.10;;;3.63;;
16320;SDS011;8269;50.990;4.494;2023-02-01T02:46:53;19.37;;;4.33;;
16320;SDS011;8269;50.990;4.494;2023-02-01T02:50:06;19.60;;;4.80;;
16320;SDS011;8269;50.990;4.494;2023-02-01T02:52:51;17.37;;;4.30;;
16320;SDS011;8269;50.990;4.494;2023-02-01T02:55:38;23.40;;;4.63;;
16320;SDS011;8269;50.990;4.494;2023-02-01T02:58:05;15.87;;;4.47;;
16320;SDS011;8269;50.990;4.494;2023-02-01T03:00:51;18.83;;;4.77;;
16320;SDS011;8269;50.990;4.494;2023-02-01T03:03:38;19.27;;;5.10;;
16320;SDS011;8269;50.990;4.494;2023-02-01T03:06:42;18.33;;;4.67;;
16320;SDS011;8269;50.990;4.494;2023-02-01T03:09:10;21.20;;;5.10;;
16320;SDS011;8269;50.990;4.494;2023-02-01T03:11:39;17.57;;;5.00;;
16320;SDS011;8269;50.990;4.494;2023-02-01T03:14:24;16.10;;;4.30;;
16320;SDS011;8269;50.990;4.494;2023-02-01T03:16:52;21.50;;;4.83;;
16320;SDS011;8269;50.990;4.494;2023-02-01T03:21:53;17.43;;;4.60;;
16320;SDS011;8269;50.990;4.494;2023-02-01T03:26:48;20.37;;;4.73;;
16320;SDS011;8269;50.990;4.494;2023-02-01T03:29:17;22.03;;;5.60;;
16320;SDS011;8269;50.990;4.494;2023-02-01T03:31:45;21.30;;;5.53;;
16320;SDS011;8269;50.990;4.494;2023-02-01T03:34:11;15.23;;;4.20;;
16320;SDS011;8269;50.990;4.494;2023-02-01T03:36:58;22.00;;;5.13;;
16320;SDS011;8269;50.990;4.494;2023-02-01T03:41:58;16.93;;;4.73;;
16320;SDS011;8269;50.990;4.494;2023-02-01T03:46:59;20.90;;;4.80;;
16320;SDS011;8269;50.990;4.494;2023-02-01T03:49:50;22.70;;;5.40;;
16320;SDS011;8269;50.990;4.494;2023-02-01T03:52:16;17.03;;;3.93;;
16320;SDS011;8269;50.990;4.494;2023-02-01T03:54:43;19.70;;;5.27;;
16320;SDS011;8269;50.990;4.494;2023-02-01T03:57:11;18.00;;;4.60;;
16320;SDS011;8269;50.990;4.494;2023-02-01T03:59:41;20.67;;;4.70;;
16320;SDS011;8269;50.990;4.494;2023-02-01T04:02:07;19.27;;;4.63;;
16320;SDS011;8269;50.990;4.494;2023-02-01T04:04:34;20.03;;;4.60;;
16320;SDS011;8269;50.990;4.494;2023-02-01T04:07:00;19.53;;;5.20;;
16320;SDS011;8269;50.990;4.494;2023-02-01T04:09:26;16.50;;;4.70;;
16320;SDS011;8269;50.990;4.494;2023-02-01T04:11:52;21.03;;;5.50;;
16320;SDS011;8269;50.990;4.494;2023-02-01T04:14:18;19.47;;;4.87;;
16320;SDS011;8269;50.990;4.494;2023-02-01T04:16:44;17.40;;;4.17;;
16320;SDS011;8269;50.990;4.494;2023-02-01T04:19:10;18.10;;;4.67;;
16320;SDS011;8269;50.990;4.494;2023-02-01T04:21:36;20.67;;;4.77;;
16320;SDS011;8269;50.990;4.494;2023-02-01T04:24:03;21.73;;;4.60;;
16320;SDS011;8269;50.990;4.494;2023-02-01T04:26:29;18.70;;;4.67;;
16320;SDS011;8269;50.990;4.494;2023-02-01T04:28:55;18.97;;;4.13;;
16320;SDS011;8269;50.990;4.494;2023-02-01T04:31:21;22.43;;;4.97;;
16320;SDS011;8269;50.990;4.494;2023-02-01T04:33:51;14.30;;;3.30;;
16320;SDS011;8269;50.990;4.494;2023-02-01T04:36:17;18.13;;;3.43;;
16320;SDS011;8269;50.990;4.494;2023-02-01T04:38:45;22.73;;;5.10;;
16320;SDS011;8269;50.990;4.494;2023-02-01T04:41:12;24.03;;;4.83;;
16320;SDS011;8269;50.990;4.494;2023-02-01T04:43:38;13.37;;;3.83;;
16320;SDS011;8269;50.990;4.494;2023-02-01T04:46:04;21.50;;;5.40;;
16320;SDS011;8269;50.990;4.494;2023-02-01T04:48:30;21.63;;;5.17;;
16320;SDS011;8269;50.990;4.494;2023-02-01T04:50:56;21.03;;;4.40;;
16320;SDS011;8269;50.990;4.494;2023-02-01T04:53:22;21.30;;;4.53;;
16320;SDS011;8269;50.990;4.494;2023-02-01T04:55:49;20.47;;;4.80;;
16320;SDS011;8269;50.990;4.494;2023-02-01T04:58:16;17.47;;;4.40;;
16320;SDS011;8269;50.990;4.494;2023-02-01T05:00:42;22.43;;;5.50;;
16320;SDS011;8269;50.990;4.494;2023-02-01T05:03:08;20.30;;;4.73;;
16320;SDS011;8269;50.990;4.494;2023-02-01T05:05:34;24.77;;;5.37;;
16320;SDS011;8269;50.990;4.494;2023-02-01T05:08:00;20.33;;;4.70;;
16320;SDS011;8269;50.990;4.494;2023-02-01T05:10:26;25.93;;;5.10;;
16320;SDS011;8269;50.990;4.494;2023-02-01T05:12:52;22.93;;;5.07;;
16320;SDS011;8269;50.990;4.494;2023-02-01T05:15:37;20.67;;;4.67;;
16320;SDS011;8269;50.990;4.494;2023-02-01T05:18:03;23.00;;;4.70;;
16320;SDS011;8269;50.990;4.494;2023-02-01T05:20:29;18.23;;;5.00;;
16320;SDS011;8269;50.990;4.494;2023-02-01T05:22:55;22.53;;;4.77;;
16320;SDS011;8269;50.990;4.494;2023-02-01T05:25:21;20.33;;;5.07;;
16320;SDS011;8269;50.990;4.494;2023-02-01T05:27:47;25.10;;;5.03;;
16320;SDS011;8269;50.990;4.494;2023-02-01T05:30:13;18.60;;;4.90;;
16320;SDS011;8269;50.990;4.494;2023-02-01T05:32:40;19.73;;;5.10;;
16320;SDS011;8269;50.990;4.494;2023-02-01T05:35:06;17.30;;;4.73;;
16320;SDS011;8269;50.990;4.494;2023-02-01T05:37:33;18.77;;;4.90;;
16320;SDS011;8269;50.990;4.494;2023-02-01T05:39:59;22.70;;;4.43;;
16320;SDS011;8269;50.990;4.494;2023-02-01T05:42:25;19.53;;;4.93;;
16320;SDS011;8269;50.990;4.494;2023-02-01T05:44:51;22.17;;;4.77;;
16320;SDS011;8269;50.990;4.494;2023-02-01T05:47:17;20.20;;;5.20;;
16320;SDS011;8269;50.990;4.494;2023-02-01T05:49:45;19.47;;;4.90;;
16320;SDS011;8269;50.990;4.494;2023-02-01T05:52:11;24.80;;;5.30;;
16320;SDS011;8269;50.990;4.494;2023-02-01T05:54:37;19.97;;;5.07;;
16320;SDS011;8269;50.990;4.494;2023-02-01T05:57:04;22.40;;;4.20;;
16320;SDS011;8269;50.990;4.494;2023-02-01T05:59:30;22.93;;;4.67;;
16320;SDS011;8269;50.990;4.494;2023-02-01T06:01:56;22.40;;;5.07;;
16320;SDS011;8269;50.990;4.494;2023-02-01T06:04:22;22.77;;;5.00;;
16320;SDS011;8269;50.990;4.494;2023-02-01T06:06:48;21.93;;;5.47;;
16320;SDS011;8269;50.990;4.494;2023-02-01T06:09:15;17.73;;;3.80;;
16320;SDS011;8269;50.990;4.494;2023-02-01T06:11:41;21.13;;;5.17;;
16320;SDS011;8269;50.990;4.494;2023-02-01T06:14:07;18.90;;;4.83;;
16320;SDS011;8269;50.990;4.494;2023-02-01T06:16:33;21.07;;;5.10;;
16320;SDS011;8269;50.990;4.494;2023-02-01T06:18:59;18.67;;;4.23;;
16320;SDS011;8269;50.990;4.494;2023-02-01T06:21:25;19.93;;;5.10;;
16320;SDS011;8269;50.990;4.494;2023-02-01T06:23:54;20.80;;;4.70;;
16320;SDS011;8269;50.990;4.494;2023-02-01T06:26:22;28.97;;;5.63;;
16320;SDS011;8269;50.990;4.494;2023-02-01T06:28:48;27.57;;;5.57;;
16320;SDS011;8269;50.990;4.494;2023-02-01T06:31:14;18.67;;;4.03;;
16320;SDS011;8269;50.990;4.494;2023-02-01T06:33:40;22.50;;;5.27;;
16320;SDS011;8269;50.990;4.494;2023-02-01T06:36:07;20.70;;;4.47;;
16320;SDS011;8269;50.990;4.494;2023-02-01T06:38:33;28.27;;;6.37;;
16320;SDS011;8269;50.990;4.494;2023-02-01T06:41:00;25.90;;;4.93;;
16320;SDS011;8269;50.990;4.494;2023-02-01T06:43:27;22.57;;;5.53;;
16320;SDS011;8269;50.990;4.494;2023-02-01T06:45:53;19.40;;;4.43;;
16320;SDS011;8269;50.990;4.494;2023-02-01T06:48:24;21.83;;;5.13;;
16320;SDS011;8269;50.990;4.494;2023-02-01T06:50:50;21.47;;;4.90;;
16320;SDS011;8269;50.990;4.494;2023-02-01T06:53:16;22.83;;;4.73;;
16320;SDS011;8269;50.990;4.494;2023-02-01T06:55:50;18.63;;;4.63;;
16320;SDS011;8269;50.990;4.494;2023-02-01T06:58:16;20.23;;;5.37;;
16320;SDS011;8269;50.990;4.494;2023-02-01T07:00:42;27.97;;;5.80;;
16320;SDS011;8269;50.990;4.494;2023-02-01T07:03:08;21.90;;;4.83;;
16320;SDS011;8269;50.990;4.494;2023-02-01T07:05:34;22.80;;;5.07;;
16320;SDS011;8269;50.990;4.494;2023-02-01T07:08:00;25.60;;;6.97;;
16320;SDS011;8269;50.990;4.494;2023-02-01T07:10:26;24.33;;;5.47;;
16320;SDS011;8269;50.990;4.494;2023-02-01T07:12:55;24.70;;;5.60;;
16320;SDS011;8269;50.990;4.494;2023-02-01T07:15:21;19.57;;;4.53;;
16320;SDS011;8269;50.990;4.494;2023-02-01T07:17:47;18.37;;;5.27;;
16320;SDS011;8269;50.990;4.494;2023-02-01T07:20:14;25.40;;;5.30;;
16320;SDS011;8269;50.990;4.494;2023-02-01T07:22:58;18.87;;;4.10;;
16320;SDS011;8269;50.990;4.494;2023-02-01T07:25:24;19.30;;;4.47;;
16320;SDS011;8269;50.990;4.494;2023-02-01T07:27:50;23.23;;;5.30;;
16320;SDS011;8269;50.990;4.494;2023-02-01T07:30:16;20.20;;;4.50;;
16320;SDS011;8269;50.990;4.494;2023-02-01T07:32:42;15.57;;;4.60;;
16320;SDS011;8269;50.990;4.494;2023-02-01T07:35:08;19.47;;;4.67;;
16320;SDS011;8269;50.990;4.494;2023-02-01T07:37:34;19.97;;;4.27;;
16320;SDS011;8269;50.990;4.494;2023-02-01T07:40:00;18.87;;;4.53;;
16320;SDS011;8269;50.990;4.494;2023-02-01T07:42:26;20.90;;;4.73;;
16320;SDS011;8269;50.990;4.494;2023-02-01T07:44:52;15.67;;;4.27;;
16320;SDS011;8269;50.990;4.494;2023-02-01T07:47:18;21.83;;;5.47;;
16320;SDS011;8269;50.990;4.494;2023-02-01T07:49:45;19.33;;;3.87;;
16320;SDS011;8269;50.990;4.494;2023-02-01T07:52:11;19.60;;;4.13;;
16320;SDS011;8269;50.990;4.494;2023-02-01T07:54:40;21.83;;;4.60;;
16320;SDS011;8269;50.990;4.494;2023-02-01T07:57:06;21.63;;;5.33;;
16320;SDS011;8269;50.990;4.494;2023-02-01T07:59:33;18.00;;;4.73;;
16320;SDS011;8269;50.990;4.494;2023-02-01T08:02:00;14.17;;;3.10;;
16320;SDS011;8269;50.990;4.494;2023-02-01T08:04:26;20.67;;;4.70;;
16320;SDS011;8269;50.990;4.494;2023-02-01T08:06:54;16.47;;;4.13;;
16320;SDS011;8269;50.990;4.494;2023-02-01T08:09:20;15.67;;;4.40;;
16320;SDS011;8269;50.990;4.494;2023-02-01T08:11:46;19.07;;;4.57;;
16320;SDS011;8269;50.990;4.494;2023-02-01T08:14:12;24.27;;;5.50;;
16320;SDS011;8269;50.990;4.494;2023-02-01T08:16:39;19.53;;;4.83;;
16320;SDS011;8269;50.990;4.494;2023-02-01T08:19:05;19.93;;;4.03;;
16320;SDS011;8269;50.990;4.494;2023-02-01T08:21:31;21.93;;;5.13;;
16320;SDS011;8269;50.990;4.494;2023-02-01T08:24:06;14.93;;;4.53;;
16320;SDS011;8269;50.990;4.494;2023-02-01T08:26:33;22.77;;;4.67;;
16320;SDS011;8269;50.990;4.494;2023-02-01T08:29:00;24.20;;;5.87;;
16320;SDS011;8269;50.990;4.494;2023-02-01T08:31:28;25.93;;;5.57;;
16320;SDS011;8269;50.990;4.494;2023-02-01T08:33:55;19.10;;;4.40;;
16320;SDS011;8269;50.990;4.494;2023-02-01T08:36:21;19.37;;;4.50;;
16320;SDS011;8269;50.990;4.494;2023-02-01T08:38:48;21.70;;;4.87;;
16320;SDS011;8269;50.990;4.494;2023-02-01T08:41:16;22.73;;;5.60;;
16320;SDS011;8269;50.990;4.494;2023-02-01T08:43:42;17.57;;;4.73;;
16320;SDS011;8269;50.990;4.494;2023-02-01T08:46:08;15.57;;;4.40;;
16320;SDS011;8269;50.990;4.494;2023-02-01T08:48:35;23.00;;;5.47;;
16320;SDS011;8269;50.990;4.494;2023-02-01T08:51:02;21.70;;;4.50;;
16320;SDS011;8269;50.990;4.494;2023-02-01T08:53:28;17.03;;;4.80;;
16320;SDS011;8269;50.990;4.494;2023-02-01T08:55:54;18.27;;;5.00;;
16320;SDS011;8269;50.990;4.494;2023-02-01T08:58:20;18.73;;;4.97;;
16320;SDS011;8269;50.990;4.494;2023-02-01T09:00:47;15.03;;;4.70;;
16320;SDS011;8269;50.990;4.494;2023-02-01T09:03:13;23.20;;;5.50;;
16320;SDS011;8269;50.990;4.494;2023-02-01T09:05:40;23.97;;;5.20;;
16320;SDS011;8269;50.990;4.494;2023-02-01T09:08:06;18.60;;;4.53;;
16320;SDS011;8269;50.990;4.494;2023-02-01T09:10:32;23.03;;;5.60;;
16320;SDS011;8269;50.990;4.494;2023-02-01T09:12:59;16.53;;;4.50;;
16320;SDS011;8269;50.990;4.494;2023-02-01T09:15:25;17.07;;;4.70;;
16320;SDS011;8269;50.990;4.494;2023-02-01T09:17:51;19.23;;;4.67;;
16320;SDS011;8269;50.990;4.494;2023-02-01T09:20:17;21.03;;;5.10;;
16320;SDS011;8269;50.990;4.494;2023-02-01T09:22:45;19.50;;;5.00;;
16320;SDS011;8269;50.990;4.494;2023-02-01T09:25:12;22.83;;;5.30;;
16320;SDS011;8269;50.990;4.494;2023-02-01T09:27:38;19.20;;;5.30;;
16320;SDS011;8269;50.990;4.494;2023-02-01T09:30:04;16.07;;;4.77;;
16320;SDS011;8269;50.990;4.494;2023-02-01T09:32:30;19.73;;;4.87;;
16320;SDS011;8269;50.990;4.494;2023-02-01T09:34:56;21.70;;;6.23;;
16320;SDS011;8269;50.990;4.494;2023-02-01T09:37:22;24.83;;;5.17;;
16320;SDS011;8269;50.990;4.494;2023-02-01T09:39:48;24.80;;;5.13;;
16320;SDS011;8269;50.990;4.494;2023-02-01T09:47:43;17.50;;;4.33;;
16320;SDS011;8269;50.990;4.494;2023-02-01T09:50:13;16.20;;;4.60;;
16320;SDS011;8269;50.990;4.494;2023-02-01T09:55:36;18.27;;;4.10;;
16320;SDS011;8269;50.990;4.494;2023-02-01T10:00:30;17.43;;;4.73;;
16320;SDS011;8269;50.990;4.494;2023-02-01T10:02:59;15.87;;;4.20;;
16320;SDS011;8269;50.990;4.494;2023-02-01T10:08:13;16.87;;;4.47;;
16320;SDS011;8269;50.990;4.494;2023-02-01T10:10:46;18.07;;;4.50;;
16320;SDS011;8269;50.990;4.494;2023-02-01T10:26:35;21.87;;;4.70;;
16320;SDS011;8269;50.990;4.494;2023-02-01T10:29:03;17.83;;;4.60;;
16320;SDS011;8269;50.990;4.494;2023-02-01T10:31:34;16.03;;;4.80;;
16320;SDS011;8269;50.990;4.494;2023-02-01T10:34:09;17.40;;;3.87;;
16320;SDS011;8269;50.990;4.494;2023-02-01T10:36:41;19.20;;;3.50;;
16320;SDS011;8269;50.990;4.494;2023-02-01T10:39:08;17.53;;;4.70;;
16320;SDS011;8269;50.990;4.494;2023-02-01T10:41:37;13.80;;;4.03;;
16320;SDS011;8269;50.990;4.494;2023-02-01T10:44:05;17.17;;;4.10;;
16320;SDS011;8269;50.990;4.494;2023-02-01T10:46:33;14.37;;;3.67;;
16320;SDS011;8269;50.990;4.494;2023-02-01T10:49:00;19.33;;;4.17;;
16320;SDS011;8269;50.990;4.494;2023-02-01T10:51:29;12.80;;;3.70;;
16320;SDS011;8269;50.990;4.494;2023-02-01T10:54:03;15.47;;;3.93;;
16320;SDS011;8269;50.990;4.494;2023-02-01T10:56:29;18.23;;;4.33;;
16320;SDS011;8269;50.990;4.494;2023-02-01T10:59:02;12.50;;;3.53;;
16320;SDS011;8269;50.990;4.494;2023-02-01T11:01:39;17.03;;;4.33;;
16320;SDS011;8269;50.990;4.494;2023-02-01T11:04:12;14.00;;;2.97;;
16320;SDS011;8269;50.990;4.494;2023-02-01T11:06:42;12.37;;;3.40;;
16320;SDS011;8269;50.990;4.494;2023-02-01T11:14:14;13.47;;;2.60;;
16320;SDS011;8269;50.990;4.494;2023-02-01T11:16:41;16.60;;;3.67;;
16320;SDS011;8269;50.990;4.494;2023-02-01T11:19:13;16.83;;;3.23;;
16320;SDS011;8269;50.990;4.494;2023-02-01T11:21:40;15.73;;;3.70;;
16320;SDS011;8269;50.990;4.494;2023-02-01T11:24:11;12.70;;;3.60;;
16320;SDS011;8269;50.990;4.494;2023-02-01T11:26:41;16.20;;;3.73;;
16320;SDS011;8269;50.990;4.494;2023-02-01T11:29:11;13.33;;;3.10;;
16320;SDS011;8269;50.990;4.494;2023-02-01T11:31:38;11.97;;;2.93;;
16320;SDS011;8269;50.990;4.494;2023-02-01T11:34:11;16.60;;;3.23;;
16320;SDS011;8269;50.990;4.494;2023-02-01T11:36:39;16.30;;;3.60;;
16320;SDS011;8269;50.990;4.494;2023-02-01T11:42:00;15.17;;;3.60;;
16320;SDS011;8269;50.990;4.494;2023-02-01T11:44:31;11.00;;;2.73;;
16320;SDS011;8269;50.990;4.494;2023-02-01T11:49:44;11.43;;;2.73;;
16320;SDS011;8269;50.990;4.494;2023-02-01T11:52:12;14.87;;;3.33;;
16320;SDS011;8269;50.990;4.494;2023-02-01T11:57:32;22.57;;;4.00;;
16320;SDS011;8269;50.990;4.494;2023-02-01T12:02:35;12.70;;;2.80;;
16320;SDS011;8269;50.990;4.494;2023-02-01T12:05:10;17.83;;;4.00;;
16320;SDS011;8269;50.990;4.494;2023-02-01T12:10:32;20.77;;;3.40;;
16320;SDS011;8269;50.990;4.494;2023-02-01T12:23:24;14.93;;;3.00;;
16320;SDS011;8269;50.990;4.494;2023-02-01T12:26:06;14.47;;;2.70;;
16320;SDS011;8269;50.990;4.494;2023-02-01T12:31:29;13.47;;;2.53;;
16320;SDS011;8269;50.990;4.494;2023-02-01T12:34:10;11.07;;;2.63;;
16320;SDS011;8269;50.990;4.494;2023-02-01T12:36:51;9.83;;;2.10;;
16320;SDS011;8269;50.990;4.494;2023-02-01T12:41:56;12.37;;;2.57;;
16320;SDS011;8269;50.990;4.494;2023-02-01T12:46:54;11.40;;;2.57;;
16320;SDS011;8269;50.990;4.494;2023-02-01T12:52:09;15.47;;;2.53;;
16320;SDS011;8269;50.990;4.494;2023-02-01T12:57:16;11.40;;;2.47;;
16320;SDS011;8269;50.990;4.494;2023-02-01T12:59:51;15.70;;;3.13;;
16320;SDS011;8269;50.990;4.494;2023-02-01T13:05:29;15.23;;;3.23;;
16320;SDS011;8269;50.990;4.494;2023-02-01T13:15:47;16.00;;;2.73;;
16320;SDS011;8269;50.990;4.494;2023-02-01T13:18:18;11.83;;;2.43;;
16320;SDS011;8269;50.990;4.494;2023-02-01T13:20:47;12.33;;;2.67;;
16320;SDS011;8269;50.990;4.494;2023-02-01T13:25:50;16.07;;;2.97;;
16320;SDS011;8269;50.990;4.494;2023-02-01T13:33:59;13.47;;;2.80;;
16320;SDS011;8269;50.990;4.494;2023-02-01T13:41:31;12.13;;;2.97;;
16320;SDS011;8269;50.990;4.494;2023-02-01T13:44:31;11.37;;;2.63;;
16320;SDS011;8269;50.990;4.494;2023-02-01T13:46:50;13.60;;;2.80;;
16320;SDS011;8269;50.990;4.494;2023-02-01T13:49:19;17.10;;;2.90;;
16320;SDS011;8269;50.990;4.494;2023-02-01T13:51:47;12.80;;;2.97;;
16320;SDS011;8269;50.990;4.494;2023-02-01T13:54:24;14.43;;;2.57;;
16320;SDS011;8269;50.990;4.494;2023-02-01T13:56:51;11.90;;;2.63;;
16320;SDS011;8269;50.990;4.494;2023-02-01T13:59:44;14.30;;;2.43;;
16320;SDS011;8269;50.990;4.494;2023-02-01T14:04:59;16.37;;;2.70;;
16320;SDS011;8269;50.990;4.494;2023-02-01T14:07:25;12.30;;;2.83;;
16320;SDS011;8269;50.990;4.494;2023-02-01T14:09:51;12.00;;;2.23;;
16320;SDS011;8269;50.990;4.494;2023-02-01T14:12:41;13.00;;;2.53;;
16320;SDS011;8269;50.990;4.494;2023-02-01T14:15:17;15.00;;;2.90;;
16320;SDS011;8269;50.990;4.494;2023-02-01T14:17:43;11.73;;;2.53;;
16320;SDS011;8269;50.990;4.494;2023-02-01T14:20:36;14.53;;;2.80;;
16320;SDS011;8269;50.990;4.494;2023-02-01T14:23:09;19.30;;;4.13;;
16320;SDS011;8269;50.990;4.494;2023-02-01T14:25:36;16.37;;;3.30;;
16320;SDS011;8269;50.990;4.494;2023-02-01T14:28:10;13.80;;;2.63;;
16320;SDS011;8269;50.990;4.494;2023-02-01T14:30:36;13.33;;;2.60;;
16320;SDS011;8269;50.990;4.494;2023-02-01T14:33:11;9.90;;;2.50;;
16320;SDS011;8269;50.990;4.494;2023-02-01T14:35:37;10.40;;;2.70;;
16320;SDS011;8269;50.990;4.494;2023-02-01T14:38:04;14.87;;;3.10;;
16320;SDS011;8269;50.990;4.494;2023-02-01T14:40:32;14.77;;;2.90;;
16320;SDS011;8269;50.990;4.494;2023-02-01T14:43:00;14.47;;;2.80;;
16320;SDS011;8269;50.990;4.494;2023-02-01T14:58:06;14.80;;;3.07;;
16320;SDS011;8269;50.990;4.494;2023-02-01T15:00:41;16.23;;;3.40;;
16320;SDS011;8269;50.990;4.494;2023-02-01T15:05:57;19.13;;;3.67;;
16320;SDS011;8269;50.990;4.494;2023-02-01T15:08:35;20.43;;;4.07;;
16320;SDS011;8269;50.990;4.494;2023-02-01T15:11:06;15.23;;;3.47;;
16320;SDS011;8269;50.990;4.494;2023-02-01T15:13:34;13.70;;;3.10;;
16320;SDS011;8269;50.990;4.494;2023-02-01T15:18:29;19.50;;;4.17;;
16320;SDS011;8269;50.990;4.494;2023-02-01T15:20:56;14.97;;;3.30;;
16320;SDS011;8269;50.990;4.494;2023-02-01T15:23:23;13.43;;;3.13;;
16320;SDS011;8269;50.990;4.494;2023-02-01T15:25:49;15.47;;;2.93;;
16320;SDS011;8269;50.990;4.494;2023-02-01T15:28:15;16.20;;;3.90;;
16320;SDS011;8269;50.990;4.494;2023-02-01T15:30:55;11.93;;;2.53;;
16320;SDS011;8269;50.990;4.494;2023-02-01T15:33:21;19.47;;;3.40;;
16320;SDS011;8269;50.990;4.494;2023-02-01T15:35:52;14.37;;;3.47;;
16320;SDS011;8269;50.990;4.494;2023-02-01T15:40:58;12.53;;;3.67;;
16320;SDS011;8269;50.990;4.494;2023-02-01T15:43:24;19.77;;;3.80;;
16320;SDS011;8269;50.990;4.494;2023-02-01T15:45:51;12.33;;;3.93;;
16320;SDS011;8269;50.990;4.494;2023-02-01T15:48:23;13.53;;;3.33;;
16320;SDS011;8269;50.990;4.494;2023-02-01T15:50:49;14.77;;;3.63;;
16320;SDS011;8269;50.990;4.494;2023-02-01T15:53:17;19.70;;;3.33;;
16320;SDS011;8269;50.990;4.494;2023-02-01T15:55:44;16.90;;;3.53;;
16320;SDS011;8269;50.990;4.494;2023-02-01T15:58:15;14.27;;;3.13;;
16320;SDS011;8269;50.990;4.494;2023-02-01T16:00:44;15.20;;;3.53;;
16320;SDS011;8269;50.990;4.494;2023-02-01T16:05:54;16.37;;;3.57;;
16320;SDS011;8269;50.990;4.494;2023-02-01T16:08:22;15.93;;;3.53;;
16320;SDS011;8269;50.990;4.494;2023-02-01T16:10:49;16.30;;;3.40;;
16320;SDS011;8269;50.990;4.494;2023-02-01T16:13:16;17.20;;;3.77;;
16320;SDS011;8269;50.990;4.494;2023-02-01T16:15:42;12.03;;;3.03;;
16320;SDS011;8269;50.990;4.494;2023-02-01T16:18:08;12.97;;;3.93;;
16320;SDS011;8269;50.990;4.494;2023-02-01T16:20:35;17.07;;;3.77;;
16320;SDS011;8269;50.990;4.494;2023-02-01T16:23:02;16.57;;;3.63;;
16320;SDS011;8269;50.990;4.494;2023-02-01T16:25:28;13.60;;;3.10;;
16320;SDS011;8269;50.990;4.494;2023-02-01T16:27:54;17.03;;;4.17;;
16320;SDS011;8269;50.990;4.494;2023-02-01T16:30:21;15.10;;;3.77;;
16320;SDS011;8269;50.990;4.494;2023-02-01T16:32:53;17.83;;;3.67;;
16320;SDS011;8269;50.990;4.494;2023-02-01T16:35:26;14.97;;;4.03;;
16320;SDS011;8269;50.990;4.494;2023-02-01T16:37:53;12.00;;;3.20;;
16320;SDS011;8269;50.990;4.494;2023-02-01T16:40:19;15.10;;;3.97;;
16320;SDS011;8269;50.990;4.494;2023-02-01T16:42:49;15.67;;;3.97;;
16320;SDS011;8269;50.990;4.494;2023-02-01T16:45:16;18.13;;;4.57;;
16320;SDS011;8269;50.990;4.494;2023-02-01T16:47:47;14.03;;;3.77;;
16320;SDS011;8269;50.990;4.494;2023-02-01T16:50:16;18.53;;;3.90;;
16320;SDS011;8269;50.990;4.494;2023-02-01T16:52:43;14.73;;;3.73;;
16320;SDS011;8269;50.990;4.494;2023-02-01T16:55:13;20.10;;;4.10;;
16320;SDS011;8269;50.990;4.494;2023-02-01T16:57:40;16.30;;;3.47;;
16320;SDS011;8269;50.990;4.494;2023-02-01T17:00:06;14.60;;;3.70;;
16320;SDS011;8269;50.990;4.494;2023-02-01T17:02:33;12.23;;;3.67;;
16320;SDS011;8269;50.990;4.494;2023-02-01T17:04:59;14.93;;;3.50;;
16320;SDS011;8269;50.990;4.494;2023-02-01T17:07:25;18.77;;;4.10;;
16320;SDS011;8269;50.990;4.494;2023-02-01T17:09:51;16.40;;;3.47;;
16320;SDS011;8269;50.990;4.494;2023-02-01T17:14:43;17.30;;;4.17;;
16320;SDS011;8269;50.990;4.494;2023-02-01T17:17:11;18.13;;;4.33;;
16320;SDS011;8269;50.990;4.494;2023-02-01T17:19:37;11.43;;;3.67;;
16320;SDS011;8269;50.990;4.494;2023-02-01T17:22:04;19.33;;;4.30;;
16320;SDS011;8269;50.990;4.494;2023-02-01T17:24:30;13.87;;;4.10;;
16320;SDS011;8269;50.990;4.494;2023-02-01T17:26:56;15.30;;;4.10;;